sensor_id;sensor_type;location;lat;lon;timestamp;pressure;altitude;pressure_sealevel;temperature;humidity
50852;BME280;43953;45.508;-122.806;2022-08-19T00:00:00;100301.97;;;31.19;42.49
50852;BME280;43953;45.508;-122.806;2022-08-19T00:00:32;100302.75;;;31.20;42.33
50852;BME280;43953;45.508;-122.806;2022-08-19T00:01:04;100301.97;;;31.19;42.51
50852;BME280;43953;45.508;-122.806;2022-08-19T00:01:38;100306.72;;;31.19;42.76
50852;BME280;43953;45.508;-122.806;2022-08-19T00:02:10;100301.16;;;31.19;42.63
50852;BME280;43953;45.508;-122.806;2022-08-19T00:02:42;100308.69;;;31.18;42.39
50852;BME280;43953;45.508;-122.806;2022-08-19T00:03:14;100299.56;;;31.18;42.53
50852;BME280;43953;45.508;-122.806;2022-08-19T00:03:45;100303.13;;;31.18;42.52
50852;BME280;43953;45.508;-122.806;2022-08-19T00:04:19;100303.47;;;31.17;42.42
50852;BME280;43953;45.508;-122.806;2022-08-19T00:04:51;100301.50;;;31.17;42.34
50852;BME280;43953;45.508;-122.806;2022-08-19T00:05:25;100302.69;;;31.16;42.49
50852;BME280;43953;45.508;-122.806;2022-08-19T00:05:57;100304.28;;;31.17;42.60
50852;BME280;43953;45.508;-122.806;2022-08-19T00:06:30;100301.50;;;31.17;42.60
50852;BME280;43953;45.508;-122.806;2022-08-19T00:07:04;100309.84;;;31.17;42.21
50852;BME280;43953;45.508;-122.806;2022-08-19T00:07:36;100299.09;;;31.16;42.46
50852;BME280;43953;45.508;-122.806;2022-08-19T00:08:08;100306.63;;;31.15;42.57
50852;BME280;43953;45.508;-122.806;2022-08-19T00:08:40;100307.44;;;31.16;42.88
50852;BME280;43953;45.508;-122.806;2022-08-19T00:09:14;100312.19;;;31.15;42.31
50852;BME280;43953;45.508;-122.806;2022-08-19T00:09:46;100312.19;;;31.15;42.46
50852;BME280;43953;45.508;-122.806;2022-08-19T00:10:19;100328.09;;;31.15;42.50
50852;BME280;43953;45.508;-122.806;2022-08-19T00:10:50;100331.66;;;31.15;42.43
50852;BME280;43953;45.508;-122.806;2022-08-19T00:11:23;100333.66;;;31.15;42.17
50852;BME280;43953;45.508;-122.806;2022-08-19T00:11:57;100338.38;;;31.14;42.34
50852;BME280;43953;45.508;-122.806;2022-08-19T00:12:29;100330.03;;;31.14;42.40
50852;BME280;43953;45.508;-122.806;2022-08-19T00:13:01;100333.66;;;31.15;42.58
50852;BME280;43953;45.508;-122.806;2022-08-19T00:13:33;100330.88;;;31.15;42.48
50852;BME280;43953;45.508;-122.806;2022-08-19T00:14:07;100327.25;;;31.14;42.31
50852;BME280;43953;45.508;-122.806;2022-08-19T00:14:41;100327.25;;;31.14;42.14
50852;BME280;43953;45.508;-122.806;2022-08-19T00:15:15;100320.09;;;31.13;42.29
50852;BME280;43953;45.508;-122.806;2022-08-19T00:15:47;100321.69;;;31.14;42.27
50852;BME280;43953;45.508;-122.806;2022-08-19T00:16:19;100318.91;;;31.14;42.54
50852;BME280;43953;45.508;-122.806;2022-08-19T00:16:53;100314.53;;;31.13;42.16
50852;BME280;43953;45.508;-122.806;2022-08-19T00:17:25;100320.09;;;31.13;42.05
50852;BME280;43953;45.508;-122.806;2022-08-19T00:17:57;100311.75;;;31.13;42.10
50852;BME280;43953;45.508;-122.806;2022-08-19T00:18:28;100323.22;;;31.12;42.11
50852;BME280;43953;45.508;-122.806;2022-08-19T00:19:00;100314.06;;;31.11;42.29
50852;BME280;43953;45.508;-122.806;2022-08-19T00:19:32;100318.47;;;31.12;42.46
50852;BME280;43953;45.508;-122.806;2022-08-19T00:20:05;100312.91;;;31.12;42.58
50852;BME280;43953;45.508;-122.806;2022-08-19T00:20:37;100315.69;;;31.12;42.51
50852;BME280;43953;45.508;-122.806;2022-08-19T00:21:11;100312.09;;;31.12;42.49
50852;BME280;43953;45.508;-122.806;2022-08-19T00:21:43;100317.66;;;31.12;42.62
50852;BME280;43953;45.508;-122.806;2022-08-19T00:22:15;100314.06;;;31.11;42.37
50852;BME280;43953;45.508;-122.806;2022-08-19T00:22:48;100320.44;;;31.12;42.69
50852;BME280;43953;45.508;-122.806;2022-08-19T00:23:20;100317.66;;;31.12;42.30
50852;BME280;43953;45.508;-122.806;2022-08-19T00:23:53;100316.84;;;31.11;42.72
50852;BME280;43953;45.508;-122.806;2022-08-19T00:24:25;100320.81;;;31.10;42.77
50852;BME280;43953;45.508;-122.806;2022-08-19T00:24:57;100320.81;;;31.10;42.74
50852;BME280;43953;45.508;-122.806;2022-08-19T00:25:28;100326.38;;;31.10;42.32
50852;BME280;43953;45.508;-122.806;2022-08-19T00:26:00;100329.94;;;31.11;43.01
50852;BME280;43953;45.508;-122.806;2022-08-19T00:26:32;100332.72;;;31.11;42.63
50852;BME280;43953;45.508;-122.806;2022-08-19T00:27:05;100334.69;;;31.10;42.79
50852;BME280;43953;45.508;-122.806;2022-08-19T00:27:37;100342.59;;;31.08;42.59
50852;BME280;43953;45.508;-122.806;2022-08-19T00:28:09;100347.00;;;31.09;42.74
50852;BME280;43953;45.508;-122.806;2022-08-19T00:28:40;100345.81;;;31.10;42.96
50852;BME280;43953;45.508;-122.806;2022-08-19T00:29:15;100347.81;;;31.10;42.61
50852;BME280;43953;45.508;-122.806;2022-08-19T00:29:47;100341.44;;;31.09;42.85
50852;BME280;43953;45.508;-122.806;2022-08-19T00:30:19;100339.09;;;31.11;42.76
50852;BME280;43953;45.508;-122.806;2022-08-19T00:30:51;100333.09;;;31.09;42.87
50852;BME280;43953;45.508;-122.806;2022-08-19T00:31:24;100327.53;;;31.09;42.63
50852;BME280;43953;45.508;-122.806;2022-08-19T00:31:57;100324.75;;;31.09;42.87
50852;BME280;43953;45.508;-122.806;2022-08-19T00:32:30;100324.75;;;31.09;42.91
50852;BME280;43953;45.508;-122.806;2022-08-19T00:33:02;100324.75;;;31.09;43.06
50852;BME280;43953;45.508;-122.806;2022-08-19T00:33:34;100321.97;;;31.09;42.97
50852;BME280;43953;45.508;-122.806;2022-08-19T00:34:06;100321.97;;;31.09;42.81
50852;BME280;43953;45.508;-122.806;2022-08-19T00:34:38;100334.25;;;31.08;42.78
50852;BME280;43953;45.508;-122.806;2022-08-19T00:35:10;100331.47;;;31.08;42.67
50852;BME280;43953;45.508;-122.806;2022-08-19T00:35:41;100345.38;;;31.08;43.06
50852;BME280;43953;45.508;-122.806;2022-08-19T00:36:13;100345.38;;;31.08;42.72
50852;BME280;43953;45.508;-122.806;2022-08-19T00:36:45;100347.34;;;31.08;42.95
50852;BME280;43953;45.508;-122.806;2022-08-19T00:37:17;100343.75;;;31.07;42.99
50852;BME280;43953;45.508;-122.806;2022-08-19T00:37:49;100346.88;;;31.05;42.73
50852;BME280;43953;45.508;-122.806;2022-08-19T00:38:21;100350.50;;;31.06;43.06
50852;BME280;43953;45.508;-122.806;2022-08-19T00:38:53;100344.47;;;31.04;42.71
50852;BME280;43953;45.508;-122.806;2022-08-19T00:39:25;100339.72;;;31.04;42.70
50852;BME280;43953;45.508;-122.806;2022-08-19T00:39:57;100336.59;;;31.06;42.95
50852;BME280;43953;45.508;-122.806;2022-08-19T00:40:28;100331.75;;;31.03;43.11
50852;BME280;43953;45.508;-122.806;2022-08-19T00:41:01;100329.78;;;31.03;42.69
50852;BME280;43953;45.508;-122.806;2022-08-19T00:41:33;100330.09;;;31.02;42.92
50852;BME280;43953;45.508;-122.806;2022-08-19T00:42:05;100335.66;;;31.02;43.37
50852;BME280;43953;45.508;-122.806;2022-08-19T00:42:37;100334.88;;;31.01;42.94
50852;BME280;43953;45.508;-122.806;2022-08-19T00:43:10;100334.88;;;31.01;43.11
50852;BME280;43953;45.508;-122.806;2022-08-19T00:44:06;100339.97;;;30.99;43.23
50852;BME280;43953;45.508;-122.806;2022-08-19T00:44:39;100336.38;;;30.99;43.36
50852;BME280;43953;45.508;-122.806;2022-08-19T00:45:19;100337.19;;;30.99;43.02
50852;BME280;43953;45.508;-122.806;2022-08-19T00:45:52;100330.81;;;30.99;43.29
50852;BME280;43953;45.508;-122.806;2022-08-19T00:46:23;100326.44;;;30.98;43.54
50852;BME280;43953;45.508;-122.806;2022-08-19T00:46:57;100314.50;;;30.97;44.01
50852;BME280;43953;45.508;-122.806;2022-08-19T00:47:30;100322.03;;;30.97;43.60
50852;BME280;43953;45.508;-122.806;2022-08-19T00:48:03;100315.66;;;30.96;43.61
50852;BME280;43953;45.508;-122.806;2022-08-19T00:48:35;100318.44;;;30.96;43.85
50852;BME280;43953;45.508;-122.806;2022-08-19T00:49:14;100318.00;;;30.94;43.29
50852;BME280;43953;45.508;-122.806;2022-08-19T00:49:51;100320.78;;;30.94;43.76
50852;BME280;43953;45.508;-122.806;2022-08-19T00:50:23;100321.94;;;30.93;44.00
50852;BME280;43953;45.508;-122.806;2022-08-19T00:50:55;100325.53;;;30.94;43.68
50852;BME280;43953;45.508;-122.806;2022-08-19T00:51:29;100325.09;;;30.92;43.96
50852;BME280;43953;45.508;-122.806;2022-08-19T00:52:08;100329.84;;;30.91;43.65
50852;BME280;43953;45.508;-122.806;2022-08-19T00:52:45;100326.59;;;30.89;43.80
50852;BME280;43953;45.508;-122.806;2022-08-19T00:53:20;100326.59;;;30.89;43.95
50852;BME280;43953;45.508;-122.806;2022-08-19T00:53:55;100317.81;;;30.87;43.84
50852;BME280;43953;45.508;-122.806;2022-08-19T00:54:29;100318.59;;;30.88;44.03
50852;BME280;43953;45.508;-122.806;2022-08-19T00:55:05;100312.25;;;30.87;43.85
50852;BME280;43953;45.508;-122.806;2022-08-19T00:55:44;100309.84;;;30.86;44.07
50852;BME280;43953;45.508;-122.806;2022-08-19T00:56:17;100307.41;;;30.84;43.99
50852;BME280;43953;45.508;-122.806;2022-08-19T00:56:50;100304.63;;;30.84;44.07
50852;BME280;43953;45.508;-122.806;2022-08-19T00:57:36;100302.22;;;30.82;44.20
50852;BME280;43953;45.508;-122.806;2022-08-19T00:58:13;100290.25;;;30.82;44.31
50852;BME280;43953;45.508;-122.806;2022-08-19T00:58:45;100295.00;;;30.81;44.23
50852;BME280;43953;45.508;-122.806;2022-08-19T00:59:18;100296.19;;;30.80;43.95
50852;BME280;43953;45.508;-122.806;2022-08-19T00:59:52;100291.81;;;30.79;44.18
50852;BME280;43953;45.508;-122.806;2022-08-19T01:00:28;100299.31;;;30.79;44.08
50852;BME280;43953;45.508;-122.806;2022-08-19T01:01:02;100304.06;;;30.78;43.92
50852;BME280;43953;45.508;-122.806;2022-08-19T01:01:35;100308.00;;;30.77;44.28
50852;BME280;43953;45.508;-122.806;2022-08-19T01:02:08;100312.75;;;30.77;44.12
50852;BME280;43953;45.508;-122.806;2022-08-19T01:02:41;100317.50;;;30.76;43.85
50852;BME280;43953;45.508;-122.806;2022-08-19T01:03:16;100314.25;;;30.74;43.90
50852;BME280;43953;45.508;-122.806;2022-08-19T01:03:48;100308.69;;;30.74;44.29
50852;BME280;43953;45.508;-122.806;2022-08-19T01:04:19;100312.28;;;30.75;43.97
50852;BME280;43953;45.508;-122.806;2022-08-19T01:04:51;100303.16;;;30.74;44.21
50852;BME280;43953;45.508;-122.806;2022-08-19T01:05:26;100303.47;;;30.73;44.50
50852;BME280;43953;45.508;-122.806;2022-08-19T01:05:59;100307.09;;;30.73;44.04
50852;BME280;43953;45.508;-122.806;2022-08-19T01:06:32;100313.78;;;30.72;44.22
50852;BME280;43953;45.508;-122.806;2022-08-19T01:07:04;100317.75;;;30.71;44.49
50852;BME280;43953;45.508;-122.806;2022-08-19T01:07:39;100315.78;;;30.72;44.12
50852;BME280;43953;45.508;-122.806;2022-08-19T01:08:12;100318.88;;;30.70;44.43
50852;BME280;43953;45.508;-122.806;2022-08-19T01:08:45;100307.78;;;30.70;43.99
50852;BME280;43953;45.508;-122.806;2022-08-19T01:09:17;100303.41;;;30.69;44.15
50852;BME280;43953;45.508;-122.806;2022-08-19T01:09:49;100300.63;;;30.69;44.90
50852;BME280;43953;45.508;-122.806;2022-08-19T01:10:24;100298.19;;;30.68;44.61
50852;BME280;43953;45.508;-122.806;2022-08-19T01:10:58;100308.47;;;30.67;44.76
50852;BME280;43953;45.508;-122.806;2022-08-19T01:11:31;100303.31;;;30.66;45.01
50852;BME280;43953;45.508;-122.806;2022-08-19T01:12:04;100302.50;;;30.65;44.93
50852;BME280;43953;45.508;-122.806;2022-08-19T01:12:38;100299.72;;;30.65;44.67
50852;BME280;43953;45.508;-122.806;2022-08-19T01:13:10;100297.28;;;30.64;44.70
50852;BME280;43953;45.508;-122.806;2022-08-19T01:13:42;100290.91;;;30.63;44.54
50852;BME280;43953;45.508;-122.806;2022-08-19T01:14:15;100294.88;;;30.62;44.69
50852;BME280;43953;45.508;-122.806;2022-08-19T01:14:48;100290.13;;;30.63;44.69
50852;BME280;43953;45.508;-122.806;2022-08-19T01:15:26;100292.09;;;30.62;44.93
50852;BME280;43953;45.508;-122.806;2022-08-19T01:16:04;100292.09;;;30.62;44.68
50852;BME280;43953;45.508;-122.806;2022-08-19T01:16:37;100294.06;;;30.62;44.87
50852;BME280;43953;45.508;-122.806;2022-08-19T01:17:11;100305.97;;;30.62;44.68
50852;BME280;43953;45.508;-122.806;2022-08-19T01:17:44;100296.00;;;30.61;44.96
50852;BME280;43953;45.508;-122.806;2022-08-19T01:18:18;100308.75;;;30.62;44.96
50852;BME280;43953;45.508;-122.806;2022-08-19T01:18:51;100305.19;;;30.62;45.27
50852;BME280;43953;45.508;-122.806;2022-08-19T01:19:36;100306.31;;;30.60;45.15
50852;BME280;43953;45.508;-122.806;2022-08-19T01:20:15;100311.09;;;30.60;45.31
50852;BME280;43953;45.508;-122.806;2022-08-19T01:20:48;100303.53;;;30.60;45.27
50852;BME280;43953;45.508;-122.806;2022-08-19T01:21:37;100309.91;;;30.61;45.28
50852;BME280;43953;45.508;-122.806;2022-08-19T01:22:57;100297.91;;;30.57;45.03
50852;BME280;43953;45.508;-122.806;2022-08-19T01:23:29;100295.47;;;30.55;44.92
50852;BME280;43953;45.508;-122.806;2022-08-19T01:24:21;100286.31;;;30.55;44.90
50852;BME280;43953;45.508;-122.806;2022-08-19T01:24:52;100297.44;;;30.55;45.09
50852;BME280;43953;45.508;-122.806;2022-08-19T01:25:49;100297.00;;;30.53;44.86
50852;BME280;43953;45.508;-122.806;2022-08-19T01:26:23;100298.59;;;30.54;45.08
50852;BME280;43953;45.508;-122.806;2022-08-19T01:26:56;100302.56;;;30.53;44.90
50852;BME280;43953;45.508;-122.806;2022-08-19T01:27:38;100309.25;;;30.52;45.06
50852;BME280;43953;45.508;-122.806;2022-08-19T01:28:25;100311.22;;;30.51;45.06
50852;BME280;43953;45.508;-122.806;2022-08-19T01:28:59;100318.75;;;30.51;44.80
50852;BME280;43953;45.508;-122.806;2022-08-19T01:29:32;100309.63;;;30.50;44.99
50852;BME280;43953;45.508;-122.806;2022-08-19T01:30:05;100311.59;;;30.50;45.06
50852;BME280;43953;45.508;-122.806;2022-08-19T01:30:37;100308.00;;;30.49;44.92
50852;BME280;43953;45.508;-122.806;2022-08-19T01:31:18;100302.81;;;30.48;44.88
50852;BME280;43953;45.508;-122.806;2022-08-19T01:31:52;100303.97;;;30.47;45.00
50852;BME280;43953;45.508;-122.806;2022-08-19T01:32:24;100308.34;;;30.48;45.07
50852;BME280;43953;45.508;-122.806;2022-08-19T01:32:57;100309.53;;;30.47;44.90
50852;BME280;43953;45.508;-122.806;2022-08-19T01:33:31;100313.44;;;30.46;45.24
50852;BME280;43953;45.508;-122.806;2022-08-19T01:34:03;100306.28;;;30.45;44.99
50852;BME280;43953;45.508;-122.806;2022-08-19T01:34:35;100311.84;;;30.45;44.82
50852;BME280;43953;45.508;-122.806;2022-08-19T01:35:07;100305.81;;;30.43;45.11
50852;BME280;43953;45.508;-122.806;2022-08-19T01:35:40;100305.81;;;30.43;45.20
50852;BME280;43953;45.508;-122.806;2022-08-19T01:36:15;100307.00;;;30.42;45.45
50852;BME280;43953;45.508;-122.806;2022-08-19T01:36:47;100295.09;;;30.41;45.11
50852;BME280;43953;45.508;-122.806;2022-08-19T01:37:20;100301.78;;;30.40;45.07
50852;BME280;43953;45.508;-122.806;2022-08-19T01:37:55;100295.78;;;30.38;45.13
50852;BME280;43953;45.508;-122.806;2022-08-19T01:38:27;100285.81;;;30.37;44.85
50852;BME280;43953;45.508;-122.806;2022-08-19T01:39:11;100285.03;;;30.36;45.15
50852;BME280;43953;45.508;-122.806;2022-08-19T01:39:43;100279.84;;;30.35;44.96
50852;BME280;43953;45.508;-122.806;2022-08-19T01:40:16;100284.56;;;30.34;45.05
50852;BME280;43953;45.508;-122.806;2022-08-19T01:40:48;100285.72;;;30.33;45.12
50852;BME280;43953;45.508;-122.806;2022-08-19T01:41:19;100296.84;;;30.33;45.24
50852;BME280;43953;45.508;-122.806;2022-08-19T01:41:53;100292.44;;;30.32;45.04
50852;BME280;43953;45.508;-122.806;2022-08-19T01:42:26;100298.00;;;30.32;45.43
50852;BME280;43953;45.508;-122.806;2022-08-19T01:42:58;100299.16;;;30.31;45.01
50852;BME280;43953;45.508;-122.806;2022-08-19T01:43:30;100300.31;;;30.30;45.25
50852;BME280;43953;45.508;-122.806;2022-08-19T01:44:03;100293.16;;;30.29;45.24
50852;BME280;43953;45.508;-122.806;2022-08-19T01:44:35;100287.59;;;30.29;45.29
50852;BME280;43953;45.508;-122.806;2022-08-19T01:45:08;100291.53;;;30.28;45.42
50852;BME280;43953;45.508;-122.806;2022-08-19T01:45:39;100283.19;;;30.28;45.14
50852;BME280;43953;45.508;-122.806;2022-08-19T01:46:12;100268.50;;;30.28;45.04
50852;BME280;43953;45.508;-122.806;2022-08-19T01:46:44;100269.69;;;30.27;45.22
50852;BME280;43953;45.508;-122.806;2022-08-19T01:47:16;100270.47;;;30.27;45.54
50852;BME280;43953;45.508;-122.806;2022-08-19T01:47:48;100269.69;;;30.27;45.25
50852;BME280;43953;45.508;-122.806;2022-08-19T01:48:20;100260.53;;;30.26;45.26
50852;BME280;43953;45.508;-122.806;2022-08-19T01:48:53;100268.03;;;30.26;45.48
50852;BME280;43953;45.508;-122.806;2022-08-19T01:49:25;100266.44;;;30.25;45.51
50852;BME280;43953;45.508;-122.806;2022-08-19T01:49:58;100265.63;;;30.24;45.50
50852;BME280;43953;45.508;-122.806;2022-08-19T01:50:31;100264.47;;;30.25;45.29
50852;BME280;43953;45.508;-122.806;2022-08-19T01:51:04;100260.88;;;30.25;45.41
50852;BME280;43953;45.508;-122.806;2022-08-19T01:51:36;100261.69;;;30.25;45.09
50852;BME280;43953;45.508;-122.806;2022-08-19T01:52:08;100254.53;;;30.24;45.43
50852;BME280;43953;45.508;-122.806;2022-08-19T01:52:41;100250.94;;;30.24;45.43
50852;BME280;43953;45.508;-122.806;2022-08-19T01:53:13;100251.75;;;30.24;45.47
50852;BME280;43953;45.508;-122.806;2022-08-19T01:53:48;100247.38;;;30.23;45.22
50852;BME280;43953;45.508;-122.806;2022-08-19T01:54:21;100239.84;;;30.24;45.27
50852;BME280;43953;45.508;-122.806;2022-08-19T01:54:53;100249.31;;;30.23;45.24
50852;BME280;43953;45.508;-122.806;2022-08-19T01:55:25;100250.13;;;30.23;45.17
50852;BME280;43953;45.508;-122.806;2022-08-19T01:55:57;100255.69;;;30.23;45.28
50852;BME280;43953;45.508;-122.806;2022-08-19T01:56:29;100260.41;;;30.23;45.44
50852;BME280;43953;45.508;-122.806;2022-08-19T01:57:05;100264.03;;;30.23;45.26
50852;BME280;43953;45.508;-122.806;2022-08-19T01:57:39;100265.16;;;30.22;45.44
50852;BME280;43953;45.508;-122.806;2022-08-19T01:58:18;100263.56;;;30.21;45.16
50852;BME280;43953;45.508;-122.806;2022-08-19T01:58:59;100260.78;;;30.21;45.24
50852;BME280;43953;45.508;-122.806;2022-08-19T01:59:32;100258.81;;;30.22;45.39
50852;BME280;43953;45.508;-122.806;2022-08-19T02:00:11;100257.19;;;30.21;45.50
50852;BME280;43953;45.508;-122.806;2022-08-19T02:00:43;100262.75;;;30.21;45.31
50852;BME280;43953;45.508;-122.806;2022-08-19T02:01:16;100256.38;;;30.20;45.61
50852;BME280;43953;45.508;-122.806;2022-08-19T02:01:48;100258.31;;;30.20;45.59
50852;BME280;43953;45.508;-122.806;2022-08-19T02:02:20;100262.75;;;30.21;45.41
50852;BME280;43953;45.508;-122.806;2022-08-19T02:02:52;100261.94;;;30.20;45.70
50852;BME280;43953;45.508;-122.806;2022-08-19T02:03:23;100259.16;;;30.20;46.09
50852;BME280;43953;45.508;-122.806;2022-08-19T02:03:55;100254.44;;;30.21;45.55
50852;BME280;43953;45.508;-122.806;2022-08-19T02:04:27;100257.50;;;30.19;45.89
50852;BME280;43953;45.508;-122.806;2022-08-19T02:04:59;100249.19;;;30.19;45.94
50852;BME280;43953;45.508;-122.806;2022-08-19T02:05:30;100248.38;;;30.19;46.00
50852;BME280;43953;45.508;-122.806;2022-08-19T02:06:03;100243.63;;;30.19;45.91
50852;BME280;43953;45.508;-122.806;2022-08-19T02:06:36;100248.38;;;30.19;46.00
50852;BME280;43953;45.508;-122.806;2022-08-19T02:07:08;100236.47;;;30.18;46.10
50852;BME280;43953;45.508;-122.806;2022-08-19T02:07:40;100234.84;;;30.17;45.97
50852;BME280;43953;45.508;-122.806;2022-08-19T02:08:12;100233.69;;;30.18;46.31
50852;BME280;43953;45.508;-122.806;2022-08-19T02:08:44;100228.94;;;30.19;45.99
50852;BME280;43953;45.508;-122.806;2022-08-19T02:09:20;100236.47;;;30.18;46.29
50852;BME280;43953;45.508;-122.806;2022-08-19T02:09:51;100234.03;;;30.16;46.02
50852;BME280;43953;45.508;-122.806;2022-08-19T02:10:23;100236.00;;;30.16;45.93
50852;BME280;43953;45.508;-122.806;2022-08-19T02:10:55;100245.94;;;30.17;46.22
50852;BME280;43953;45.508;-122.806;2022-08-19T02:11:30;100247.91;;;30.16;46.29
50852;BME280;43953;45.508;-122.806;2022-08-19T02:12:04;100243.53;;;30.15;46.16
50852;BME280;43953;45.508;-122.806;2022-08-19T02:12:36;100249.09;;;30.15;46.24
50852;BME280;43953;45.508;-122.806;2022-08-19T02:13:08;100244.34;;;30.16;46.34
50852;BME280;43953;45.508;-122.806;2022-08-19T02:13:40;100251.06;;;30.15;46.35
50852;BME280;43953;45.508;-122.806;2022-08-19T02:14:11;100248.28;;;30.15;46.31
50852;BME280;43953;45.508;-122.806;2022-08-19T02:14:43;100250.25;;;30.14;46.36
50852;BME280;43953;45.508;-122.806;2022-08-19T02:15:16;100247.81;;;30.13;46.12
50852;BME280;43953;45.508;-122.806;2022-08-19T02:15:50;100243.44;;;30.12;46.24
50852;BME280;43953;45.508;-122.806;2022-08-19T02:16:22;100235.09;;;30.12;46.21
50852;BME280;43953;45.508;-122.806;2022-08-19T02:16:53;100230.69;;;30.11;46.27
50852;BME280;43953;45.508;-122.806;2022-08-19T02:17:25;100222.38;;;30.11;46.23
50852;BME280;43953;45.508;-122.806;2022-08-19T02:17:57;100219.59;;;30.11;46.37
50852;BME280;43953;45.508;-122.806;2022-08-19T02:18:29;100226.78;;;30.12;46.39
50852;BME280;43953;45.508;-122.806;2022-08-19T02:19:01;100226.31;;;30.10;46.19
50852;BME280;43953;45.508;-122.806;2022-08-19T02:19:33;100234.63;;;30.10;46.54
50852;BME280;43953;45.508;-122.806;2022-08-19T02:20:05;100233.84;;;30.09;46.53
50852;BME280;43953;45.508;-122.806;2022-08-19T02:20:39;100231.41;;;30.08;46.26
50852;BME280;43953;45.508;-122.806;2022-08-19T02:21:11;100235.00;;;30.08;46.27
50852;BME280;43953;45.508;-122.806;2022-08-19T02:21:44;100244.13;;;30.09;46.38
50852;BME280;43953;45.508;-122.806;2022-08-19T02:22:16;100246.13;;;30.08;46.56
50852;BME280;43953;45.508;-122.806;2022-08-19T02:22:47;100243.69;;;30.07;46.75
50852;BME280;43953;45.508;-122.806;2022-08-19T02:23:19;100248.41;;;30.06;46.82
50852;BME280;43953;45.508;-122.806;2022-08-19T02:23:51;100248.41;;;30.06;46.64
50852;BME280;43953;45.508;-122.806;2022-08-19T02:24:22;100247.16;;;30.04;46.71
50852;BME280;43953;45.508;-122.806;2022-08-19T02:24:55;100250.72;;;30.04;46.82
50852;BME280;43953;45.508;-122.806;2022-08-19T02:25:27;100252.72;;;30.04;46.70
50852;BME280;43953;45.508;-122.806;2022-08-19T02:25:59;100251.91;;;30.03;46.87
50852;BME280;43953;45.508;-122.806;2022-08-19T02:26:32;100257.00;;;30.01;46.71
50852;BME280;43953;45.508;-122.806;2022-08-19T02:27:04;100255.03;;;30.02;46.63
50852;BME280;43953;45.508;-122.806;2022-08-19T02:27:37;100261.75;;;30.01;46.71
50852;BME280;43953;45.508;-122.806;2022-08-19T02:28:09;100274.00;;;30.00;46.74
50852;BME280;43953;45.508;-122.806;2022-08-19T02:28:42;100281.50;;;29.99;46.78
50852;BME280;43953;45.508;-122.806;2022-08-19T02:29:13;100277.13;;;29.98;46.65
50852;BME280;43953;45.508;-122.806;2022-08-19T02:29:47;100279.09;;;29.98;46.62
50852;BME280;43953;45.508;-122.806;2022-08-19T02:30:20;100281.06;;;29.97;46.76
50852;BME280;43953;45.508;-122.806;2022-08-19T02:30:52;100289.41;;;29.97;46.71
50852;BME280;43953;45.508;-122.806;2022-08-19T02:31:25;100296.91;;;29.97;46.61
50852;BME280;43953;45.508;-122.806;2022-08-19T02:31:57;100298.53;;;29.98;46.53
50852;BME280;43953;45.508;-122.806;2022-08-19T02:32:29;100312.75;;;29.96;46.56
50852;BME280;43953;45.508;-122.806;2022-08-19T02:33:01;100316.34;;;29.97;46.61
50852;BME280;43953;45.508;-122.806;2022-08-19T02:33:33;100323.84;;;29.96;46.43
50852;BME280;43953;45.508;-122.806;2022-08-19T02:34:05;100325.81;;;29.96;46.43
50852;BME280;43953;45.508;-122.806;2022-08-19T02:34:37;100322.25;;;29.95;46.59
50852;BME280;43953;45.508;-122.806;2022-08-19T02:35:08;100320.25;;;29.96;46.69
50852;BME280;43953;45.508;-122.806;2022-08-19T02:35:45;100325.00;;;29.95;46.59
50852;BME280;43953;45.508;-122.806;2022-08-19T02:36:17;100322.59;;;29.93;46.78
50852;BME280;43953;45.508;-122.806;2022-08-19T02:36:49;100318.66;;;29.95;46.74
50852;BME280;43953;45.508;-122.806;2022-08-19T02:37:20;100308.72;;;29.93;46.68
50852;BME280;43953;45.508;-122.806;2022-08-19T02:38:11;100305.94;;;29.93;46.70
50852;BME280;43953;45.508;-122.806;2022-08-19T02:38:57;100297.63;;;29.93;46.64
50852;BME280;43953;45.508;-122.806;2022-08-19T02:39:29;100295.19;;;29.92;46.76
50852;BME280;43953;45.508;-122.806;2022-08-19T02:40:01;100292.41;;;29.92;46.55
50852;BME280;43953;45.508;-122.806;2022-08-19T02:40:34;100288.81;;;29.91;46.91
50852;BME280;43953;45.508;-122.806;2022-08-19T02:41:13;100288.03;;;29.91;46.81
50852;BME280;43953;45.508;-122.806;2022-08-19T02:41:45;100290.81;;;29.91;46.95
50852;BME280;43953;45.508;-122.806;2022-08-19T02:42:17;100285.25;;;29.91;46.81
50852;BME280;43953;45.508;-122.806;2022-08-19T02:42:48;100288.34;;;29.89;46.74
50852;BME280;43953;45.508;-122.806;2022-08-19T02:43:21;100291.94;;;29.90;46.58
50852;BME280;43953;45.508;-122.806;2022-08-19T02:43:57;100291.94;;;29.90;46.74
50852;BME280;43953;45.508;-122.806;2022-08-19T02:44:29;100285.59;;;29.89;46.65
50852;BME280;43953;45.508;-122.806;2022-08-19T02:45:01;100287.56;;;29.89;46.57
50852;BME280;43953;45.508;-122.806;2022-08-19T02:45:35;100287.88;;;29.87;46.89
50852;BME280;43953;45.508;-122.806;2022-08-19T02:46:28;100292.63;;;29.87;46.81
50852;BME280;43953;45.508;-122.806;2022-08-19T02:47:00;100290.66;;;29.87;46.66
50852;BME280;43953;45.508;-122.806;2022-08-19T02:47:32;100292.63;;;29.87;46.54
50852;BME280;43953;45.508;-122.806;2022-08-19T02:48:04;100287.09;;;29.87;46.67
50852;BME280;43953;45.508;-122.806;2022-08-19T02:48:36;100297.38;;;29.86;46.59
50852;BME280;43953;45.508;-122.806;2022-08-19T02:49:08;100292.63;;;29.87;46.61